LRTM - TARGU MURES / TRANSILVANIA - TARGU MURES

Compiled: 17:46:53 on 20/10/2018

Latest METAR/SPECI Reports

METAR LRTM 201730Z AUTO 27003KT 240V300 9999 OVC120/// 14/09 Q1020=

Previous reports

METAR LRTM 201700Z 21002KT CAVOK 13/08 Q1020=
METAR COR LRTM 201630Z VRB01KT CAVOK 14/07 Q1020=
METAR LRTM 201630Z AUTO VRB01KT 9999 SCT120/// 14/07 Q1020=
METAR LRTM 201600Z 25003KT CAVOK 14/08 Q1020=

Latest TAF report

TAF AMD LRTM 201702Z 2017/2024 CNL=

Valid WARNINGS

No valid warnings for LRTM